Time;durP1;ratioP1;P1;durP2;ratioP2;P2;SDS_P1;SDS_P2;PMS_P1;PMS_P2;Temp;Humidity;BMP_temperature;BMP_pressure;BME280_temperature;BME280_humidity;BME280_pressure;Samples;Min_cycle;Max_cycle;Signal;HPM_P1;HPM_P2
2022/10/06 00:00:48;;;;;;;5.40;3.83;;;13.70;83.90;;;;;;5012664;28;20045;-60
2022/10/06 00:03:14;;;;;;;8.10;3.97;;;13.80;83.80;;;;;;5012243;28;20057;-59
2022/10/06 00:05:40;;;;;;;4.53;3.75;;;13.90;83.80;;;;;;5012422;28;20033;-60
2022/10/06 00:08:06;;;;;;;3.95;3.65;;;14.00;83.60;;;;;;5013926;28;20040;-60
2022/10/06 00:10:32;;;;;;;4.70;3.60;;;14.00;83.30;;;;;;5015413;28;20424;-59
2022/10/06 00:12:57;;;;;;;3.35;3.05;;;14.10;83.30;;;;;;5017995;28;20065;-59
2022/10/06 00:15:26;;;;;;;3.53;3.22;;;14.10;83.00;;;;;;5017032;28;21174;-61
2022/10/06 00:17:51;;;;;;;3.80;3.15;;;14.20;82.90;;;;;;5018586;28;20535;-59
2022/10/06 00:20:18;;;;;;;5.72;3.22;;;14.20;82.60;;;;;;5016428;28;20038;-60
2022/10/06 00:22:46;;;;;;;4.53;3.55;;;14.30;82.40;;;;;;5017718;28;22371;-61
2022/10/06 00:25:14;;;;;;;4.63;3.35;;;14.30;82.40;;;;;;5015669;28;20034;-60
2022/10/06 00:27:42;;;;;;;3.97;3.58;;;14.30;82.40;;;;;;5016389;28;20041;-61
2022/10/06 00:30:11;;;;;;;4.82;3.15;;;14.30;82.30;;;;;;5014633;28;20712;-59
2022/10/06 00:32:37;;;;;;;3.80;3.47;;;14.30;82.20;;;;;;5014962;28;20041;-60
2022/10/06 00:35:03;;;;;;;4.22;3.50;;;14.40;82.20;;;;;;5017145;28;20532;-61
2022/10/06 00:37:34;;;;;;;4.20;3.53;;;14.40;82.00;;;;;;5018520;28;20145;-60
2022/10/06 00:40:00;;;;;;;3.80;3.40;;;14.40;82.20;;;;;;5016188;28;20042;-61
2022/10/06 00:42:29;;;;;;;3.38;3.08;;;14.40;82.00;;;;;;5015605;28;20781;-61
2022/10/06 00:44:58;;;;;;;6.93;2.97;;;14.40;81.90;;;;;;5017874;28;20100;-61
2022/10/06 00:47:27;;;;;;;4.47;3.45;;;14.40;81.90;;;;;;5011924;28;20042;-61
2022/10/06 00:49:54;;;;;;;6.07;3.50;;;14.40;81.70;;;;;;5017389;28;20194;-62
2022/10/06 00:52:24;;;;;;;3.22;2.92;;;14.40;81.70;;;;;;5016460;28;20042;-59
2022/10/06 00:54:50;;;;;;;4.85;3.20;;;14.40;81.50;;;;;;5017338;28;20052;-61
2022/10/06 00:57:16;;;;;;;3.83;2.80;;;14.40;81.20;;;;;;5015048;28;20139;-61
2022/10/06 00:59:42;;;;;;;3.38;3.08;;;14.40;81.20;;;;;;5016853;28;20037;-59
2022/10/06 01:02:22;;;;;;;3.67;3.28;;;14.50;81.20;;;;;;5013922;28;20464;-59
2022/10/06 01:04:54;;;;;;;3.30;3.00;;;14.40;81.20;;;;;;5016133;28;20541;-61
2022/10/06 01:07:21;;;;;;;3.58;3.15;;;14.40;80.80;;;;;;5016069;28;20560;-60
2022/10/06 01:09:47;;;;;;;4.55;3.05;;;14.30;80.60;;;;;;5017290;28;20037;-61
2022/10/06 01:12:13;;;;;;;7.90;3.10;;;14.20;80.60;;;;;;5013752;28;20042;-61
2022/10/06 01:14:40;;;;;;;3.35;3.05;;;14.20;80.80;;;;;;5014371;28;20497;-60
2022/10/06 01:17:11;;;;;;;3.05;2.75;;;14.10;80.70;;;;;;5013679;28;20598;-60
2022/10/06 01:19:49;;;;;;;4.20;2.90;;;14.10;80.80;;;;;;5015159;28;20424;-59
2022/10/06 01:22:18;;;;;;;3.00;2.80;;;14.00;81.30;;;;;;5014525;28;20112;-61
2022/10/06 01:24:47;;;;;;;5.22;3.00;;;14.00;81.30;;;;;;5014921;28;20049;-60
2022/10/06 01:27:14;;;;;;;5.78;3.40;;;13.90;81.60;;;;;;5013790;28;20061;-61
2022/10/06 01:29:40;;;;;;;3.75;3.30;;;13.90;81.90;;;;;;5014404;28;20033;-61
2022/10/06 01:32:06;;;;;;;4.13;2.90;;;13.80;82.00;;;;;;5015940;28;20330;-60
2022/10/06 01:34:32;;;;;;;3.55;3.25;;;13.80;82.00;;;;;;5016214;28;20423;-61
2022/10/06 01:36:58;;;;;;;4.97;3.00;;;13.80;82.10;;;;;;5010720;28;20037;-59
2022/10/06 01:39:23;;;;;;;4.85;3.00;;;13.80;82.20;;;;;;5015682;28;20092;-61
2022/10/06 01:41:49;;;;;;;3.42;3.00;;;13.70;82.20;;;;;;5015073;28;20101;-60
2022/10/06 01:44:14;;;;;;;3.10;2.80;;;13.70;82.20;;;;;;5014231;28;20462;-59
2022/10/06 01:46:40;;;;;;;3.75;2.92;;;13.70;82.20;;;;;;5013644;28;20864;-60
2022/10/06 01:49:06;;;;;;;6.72;3.40;;;13.70;82.20;;;;;;5015024;28;20266;-60
2022/10/06 01:51:31;;;;;;;3.45;3.15;;;13.70;82.10;;;;;;5014546;28;20038;-61
2022/10/06 01:53:57;;;;;;;3.05;2.85;;;13.70;82.80;;;;;;5016271;28;20045;-61
2022/10/06 01:56:22;;;;;;;3.22;2.78;;;13.70;81.90;;;;;;5013538;28;20042;-60
2022/10/06 01:58:48;;;;;;;6.22;2.85;;;13.60;81.90;;;;;;5017050;28;20844;-59
2022/10/06 02:01:14;;;;;;;5.10;2.63;;;13.60;82.20;;;;;;5013354;28;20033;-61
2022/10/06 02:03:40;;;;;;;4.13;2.90;;;13.60;82.40;;;;;;5013720;28;20193;-61
2022/10/06 02:06:07;;;;;;;2.95;2.72;;;13.60;82.70;;;;;;5015819;28;20045;-60
2022/10/06 02:08:33;;;;;;;3.35;3.05;;;13.60;82.80;;;;;;5014205;28;20579;-59
2022/10/06 02:11:03;;;;;;;3.53;2.92;;;13.60;82.90;;;;;;5012358;28;20068;-58
2022/10/06 02:13:28;;;;;;;6.65;3.22;;;13.60;83.00;;;;;;5013935;28;20037;-59
2022/10/06 02:15:56;;;;;;;3.97;2.90;;;13.70;83.30;;;;;;5013149;28;20576;-59
2022/10/06 02:18:21;;;;;;;6.03;3.22;;;13.70;83.30;;;;;;5015838;28;20096;-61
2022/10/06 02:20:47;;;;;;;5.40;2.75;;;13.80;83.30;;;;;;5014697;28;21063;-61
2022/10/06 02:23:12;;;;;;;5.72;2.80;;;13.80;83.10;;;;;;5013964;28;20519;-61
2022/10/06 02:25:38;;;;;;;3.08;2.70;;;13.90;84.00;;;;;;5014693;28;20497;-60
2022/10/06 02:28:04;;;;;;;3.88;2.75;;;13.90;83.10;;;;;;4997471;28;20034;-61
2022/10/06 02:30:29;;;;;;;3.22;2.83;;;14.00;82.90;;;;;;5011421;28;20129;-61
2022/10/06 02:32:55;;;;;;;3.03;2.70;;;14.00;82.80;;;;;;5013054;28;20033;-62
2022/10/06 02:35:20;;;;;;;3.75;2.72;;;14.00;82.60;;;;;;5015145;28;20060;-61
2022/10/06 02:37:46;;;;;;;2.83;2.55;;;14.00;82.40;;;;;;5013947;28;20493;-61
2022/10/06 02:40:12;;;;;;;3.20;2.90;;;14.10;82.10;;;;;;5014214;28;20049;-61
2022/10/06 02:42:38;;;;;;;3.85;2.97;;;14.00;82.20;;;;;;5013714;28;20047;-61
2022/10/06 02:45:05;;;;;;;3.22;2.90;;;14.10;81.70;;;;;;5013305;28;20187;-60
2022/10/06 02:47:32;;;;;;;3.10;2.80;;;14.00;81.30;;;;;;5012607;28;20117;-61
2022/10/06 02:50:04;;;;;;;3.53;3.03;;;13.90;81.20;;;;;;5014031;28;20069;-61
2022/10/06 02:52:35;;;;;;;3.42;3.13;;;13.90;81.20;;;;;;5011956;28;20565;-59
2022/10/06 02:55:02;;;;;;;4.43;3.40;;;13.80;81.40;;;;;;5013456;28;20041;-60
2022/10/06 02:57:28;;;;;;;5.28;3.35;;;13.80;81.40;;;;;;5013458;28;20068;-61
2022/10/06 02:59:54;;;;;;;8.27;3.90;;;13.70;81.40;;;;;;5014466;28;20483;-61
2022/10/06 03:02:20;;;;;;;4.85;3.92;;;13.70;81.30;;;;;;5014898;28;20242;-60
2022/10/06 03:04:45;;;;;;;4.68;3.70;;;13.70;81.30;;;;;;5013996;28;20041;-60
2022/10/06 03:07:11;;;;;;;3.67;3.33;;;13.60;81.10;;;;;;5013091;28;20052;-58
2022/10/06 03:09:36;;;;;;;5.57;3.63;;;13.60;81.00;;;;;;5012450;28;20080;-60
2022/10/06 03:12:02;;;;;;;4.82;3.55;;;13.60;80.80;;;;;;5013636;28;20568;-61
2022/10/06 03:14:27;;;;;;;4.95;3.10;;;13.50;80.60;;;;;;5013549;28;20053;-61
2022/10/06 03:16:55;;;;;;;3.63;3.03;;;13.60;80.60;;;;;;5012303;28;20045;-61
2022/10/06 03:19:21;;;;;;;3.25;2.95;;;13.50;80.50;;;;;;5011806;28;20029;-61
2022/10/06 03:21:47;;;;;;;4.10;3.20;;;13.50;80.50;;;;;;5012682;28;20777;-60
2022/10/06 03:24:13;;;;;;;3.08;2.78;;;13.40;80.60;;;;;;5013885;28;20151;-60
2022/10/06 03:26:41;;;;;;;5.05;2.65;;;13.30;80.80;;;;;;5009745;28;20128;-61
2022/10/06 03:29:07;;;;;;;2.58;2.30;;;13.20;81.20;;;;;;5012277;28;20053;-61
2022/10/06 03:31:33;;;;;;;3.53;2.47;;;13.20;81.20;;;;;;5011674;28;20033;-60
2022/10/06 03:33:59;;;;;;;3.65;3.03;;;13.20;81.10;;;;;;5014228;28;20086;-59
2022/10/06 03:36:27;;;;;;;4.93;3.08;;;13.20;81.00;;;;;;5012011;28;20145;-61
2022/10/06 03:38:53;;;;;;;10.63;5.63;;;13.20;81.00;;;;;;5013542;28;20076;-61
2022/10/06 03:41:20;;;;;;;7.25;5.07;;;13.10;80.70;;;;;;5012077;28;20071;-61
2022/10/06 03:43:47;;;;;;;8.63;4.28;;;13.10;80.60;;;;;;5014958;28;20029;-59
2022/10/06 03:46:15;;;;;;;7.32;3.60;;;13.00;80.30;;;;;;5011040;28;20143;-60
2022/10/06 03:48:41;;;;;;;5.15;3.17;;;13.10;80.30;;;;;;5010352;28;20041;-61
2022/10/06 03:51:10;;;;;;;6.45;3.80;;;13.00;80.10;;;;;;5012831;28;20045;-60
2022/10/06 03:53:36;;;;;;;6.25;3.30;;;12.90;80.00;;;;;;5011614;28;20087;-61
2022/10/06 03:56:09;;;;;;;5.03;3.25;;;12.80;80.00;;;;;;5008814;28;20033;-60
2022/10/06 03:58:36;;;;;;;5.75;3.60;;;12.80;80.30;;;;;;5013739;28;20409;-60
2022/10/06 04:01:09;;;;;;;6.05;3.50;;;12.70;80.30;;;;;;5012703;28;20049;-60
2022/10/06 04:03:35;;;;;;;4.50;4.07;;;12.70;80.50;;;;;;5012921;28;20054;-60
2022/10/06 04:06:04;;;;;;;4.97;3.65;;;12.60;80.60;;;;;;5012507;28;20041;-59
2022/10/06 04:08:31;;;;;;;8.85;4.00;;;12.60;80.60;;;;;;5010702;28;20073;-61
2022/10/06 04:11:07;;;;;;;5.75;3.50;;;12.50;80.60;;;;;;5011488;28;20509;-61
2022/10/06 04:13:32;;;;;;;5.28;3.92;;;12.50;81.00;;;;;;5014421;28;20033;-61
2022/10/06 04:16:07;;;;;;;4.00;3.60;;;12.40;80.80;;;;;;5012333;28;20143;-60
2022/10/06 04:18:33;;;;;;;5.05;3.60;;;12.40;80.80;;;;;;5008886;28;20041;-61
2022/10/06 04:20:59;;;;;;;5.30;3.60;;;12.40;80.80;;;;;;5011517;28;20377;-60
2022/10/06 04:23:24;;;;;;;6.28;3.80;;;12.40;80.80;;;;;;5012579;28;20449;-61
2022/10/06 04:25:57;;;;;;;5.60;4.18;;;12.30;80.80;;;;;;5011945;28;21592;-60
2022/10/06 04:28:23;;;;;;;4.90;3.92;;;12.30;81.20;;;;;;5011832;28;20038;-61
2022/10/06 04:30:59;;;;;;;3.83;3.42;;;12.20;81.00;;;;;;5010309;28;20368;-60
2022/10/06 04:33:26;;;;;;;6.30;3.67;;;12.10;81.40;;;;;;5013041;28;20030;-61
2022/10/06 04:36:02;;;;;;;4.00;3.60;;;12.10;81.30;;;;;;5012601;28;20083;-61
2022/10/06 04:38:30;;;;;;;7.38;5.22;;;12.10;81.60;;;;;;5014015;28;20436;-60
2022/10/06 04:41:04;;;;;;;17.33;6.40;;;12.10;81.60;;;;;;5011403;28;20042;-61
2022/10/06 04:43:29;;;;;;;7.72;4.97;;;12.00;81.70;;;;;;5013672;28;20030;-59
2022/10/06 04:45:58;;;;;;;5.28;4.53;;;12.00;81.80;;;;;;5012749;28;20049;-60
2022/10/06 04:48:26;;;;;;;8.75;4.93;;;11.90;82.30;;;;;;5011669;28;20102;-61
2022/10/06 04:51:00;;;;;;;12.02;7.53;;;11.90;82.50;;;;;;5012165;28;20068;-61
2022/10/06 04:53:27;;;;;;;10.50;8.13;;;11.90;82.90;;;;;;5013642;28;20048;-60
2022/10/06 04:56:09;;;;;;;12.68;8.00;;;11.90;82.70;;;;;;5013468;28;20038;-59
2022/10/06 04:58:38;;;;;;;9.88;7.10;;;11.90;82.90;;;;;;5014288;28;20142;-61
2022/10/06 05:01:12;;;;;;;10.93;6.25;;;11.90;82.60;;;;;;5015622;28;20045;-60
2022/10/06 05:03:38;;;;;;;9.98;6.25;;;11.90;82.60;;;;;;5018598;28;20044;-59
2022/10/06 05:06:11;;;;;;;8.27;5.63;;;11.90;82.20;;;;;;5015129;28;20309;-60
2022/10/06 05:08:37;;;;;;;6.82;5.28;;;11.90;82.20;;;;;;5014708;28;20033;-60
2022/10/06 05:11:08;;;;;;;10.65;5.40;;;11.90;82.10;;;;;;5016911;28;20034;-60
2022/10/06 05:13:37;;;;;;;7.07;5.22;;;11.80;82.10;;;;;;5018826;28;20432;-61
2022/10/06 05:16:06;;;;;;;5.72;5.10;;;11.80;82.00;;;;;;5015692;28;20045;-61
2022/10/06 05:18:33;;;;;;;9.75;4.70;;;11.80;82.10;;;;;;5014917;28;20498;-59
2022/10/06 05:21:04;;;;;;;10.38;5.07;;;11.70;82.20;;;;;;5014083;28;20045;-60
2022/10/06 05:23:32;;;;;;;8.85;5.45;;;11.70;82.40;;;;;;4998693;28;20033;-61
2022/10/06 05:25:58;;;;;;;8.10;5.35;;;11.70;82.50;;;;;;5013631;28;20497;-61
2022/10/06 05:28:26;;;;;;;5.53;5.03;;;11.60;82.70;;;;;;5014332;28;20471;-59
2022/10/06 05:31:05;;;;;;;5.03;4.53;;;11.60;82.90;;;;;;5014572;28;20116;-61
2022/10/06 05:33:33;;;;;;;6.50;5.10;;;11.60;83.50;;;;;;5015165;28;20062;-60
2022/10/06 05:36:05;;;;;;;7.30;5.13;;;11.60;83.30;;;;;;5016150;28;20115;-61
2022/10/06 05:38:31;;;;;;;5.53;4.85;;;11.60;83.40;;;;;;5017249;28;20037;-61
2022/10/06 05:41:22;;;;;;;5.30;4.80;;;11.60;83.40;;;;;;5013050;28;20186;-60
2022/10/06 05:43:48;;;;;;;6.07;4.40;;;11.60;84.30;;;;;;5013922;28;20047;-56
2022/10/06 05:46:19;;;;;;;4.63;4.22;;;11.70;83.80;;;;;;5015993;28;20038;-60
2022/10/06 05:48:46;;;;;;;5.00;4.18;;;11.60;84.00;;;;;;5014124;28;20446;-60
2022/10/06 05:51:12;;;;;;;15.95;7.32;;;11.60;84.00;;;;;;5015637;28;20037;-60
2022/10/06 05:53:38;;;;;;;19.48;8.50;;;11.70;84.20;;;;;;5014158;28;20053;-59
2022/10/06 05:56:15;;;;;;;53.90;21.85;;;11.70;84.30;;;;;;5014448;28;20128;-61
2022/10/06 05:58:43;;;;;;;36.75;14.50;;;11.70;84.30;;;;;;5015860;28;20029;-60
2022/10/06 06:01:11;;;;;;;23.13;9.55;;;11.70;84.20;;;;;;5013331;28;20434;-59
2022/10/06 06:03:38;;;;;;;17.58;9.05;;;11.70;84.30;;;;;;5016985;28;20068;-60
2022/10/06 06:06:23;;;;;;;22.75;10.23;;;11.70;84.40;;;;;;5012403;28;20041;-59
2022/10/06 06:08:57;;;;;;;25.85;10.73;;;11.70;84.80;;;;;;5016351;28;20036;-60
2022/10/06 06:11:26;;;;;;;34.38;13.52;;;11.70;84.50;;;;;;5014292;28;20034;-61
2022/10/06 06:13:56;;;;;;;19.83;8.75;;;11.80;84.50;;;;;;5016331;28;20091;-60
2022/10/06 06:16:23;;;;;;;11.00;5.75;;;11.80;85.80;;;;;;5013294;28;20045;-60
2022/10/06 06:18:48;;;;;;;8.00;4.75;;;11.80;85.10;;;;;;5011752;28;20642;-60
2022/10/06 06:21:14;;;;;;;6.63;4.28;;;11.90;85.60;;;;;;5013788;28;20038;-59
2022/10/06 06:23:44;;;;;;;15.07;7.72;;;11.80;85.70;;;;;;5014263;28;20049;-59
2022/10/06 06:26:24;;;;;;;31.13;14.50;;;11.90;85.90;;;;;;5011832;28;20026;-59
2022/10/06 06:28:53;;;;;;;29.25;16.05;;;11.90;85.90;;;;;;5004480;28;25314;-59
2022/10/06 06:31:22;;;;;;;29.95;16.10;;;11.90;85.90;;;;;;5007375;28;20034;-59
2022/10/06 06:33:50;;;;;;;17.65;9.88;;;12.00;86.20;;;;;;5009049;28;20087;-59
2022/10/06 06:36:21;;;;;;;7.43;5.80;;;12.00;86.60;;;;;;5012940;28;20064;-57
2022/10/06 06:38:52;;;;;;;9.55;6.70;;;12.10;87.10;;;;;;5013052;28;20378;-58
2022/10/06 06:41:22;;;;;;;11.75;7.05;;;12.20;87.40;;;;;;5012669;28;20120;-60
2022/10/06 06:43:49;;;;;;;9.68;5.70;;;12.20;87.30;;;;;;5011879;28;20057;-61
2022/10/06 06:46:17;;;;;;;8.68;4.25;;;12.20;87.30;;;;;;5011446;28;20092;-59
2022/10/06 06:48:43;;;;;;;6.75;3.30;;;12.30;87.80;;;;;;5012491;28;20072;-61
2022/10/06 06:51:10;;;;;;;8.65;3.78;;;12.40;87.80;;;;;;5013406;28;20160;-59
2022/10/06 06:53:37;;;;;;;9.63;5.07;;;12.50;87.80;;;;;;5010135;28;20401;-60
2022/10/06 06:56:03;;;;;;;8.02;4.60;;;12.60;87.80;;;;;;5014123;28;20048;-59
2022/10/06 06:58:29;;;;;;;6.30;3.92;;;12.60;87.80;;;;;;5009516;28;20049;-58
2022/10/06 07:01:04;;;;;;;6.53;3.75;;;12.70;87.70;;;;;;5008977;28;20910;-62
2022/10/06 07:03:30;;;;;;;7.50;3.47;;;12.80;87.90;;;;;;5013143;28;20566;-60
2022/10/06 07:06:09;;;;;;;7.30;3.90;;;12.80;87.50;;;;;;5017046;28;20037;-60
2022/10/06 07:08:43;;;;;;;8.20;5.22;;;12.90;88.10;;;;;;5017077;28;20030;-59
2022/10/06 07:11:13;;;;;;;11.65;5.38;;;13.00;87.80;;;;;;5012836;28;20276;-60
2022/10/06 07:13:39;;;;;;;9.18;5.72;;;13.10;87.80;;;;;;5015386;28;20025;-58
2022/10/06 07:27:04;;;;;;;7.80;4.18;;;13.50;87.10;;;;;;5013636;28;20576;-58
2022/10/06 07:29:30;;;;;;;8.82;4.70;;;13.60;86.90;;;;;;5013330;28;20049;-59
2022/10/06 07:31:56;;;;;;;8.27;5.53;;;13.70;86.90;;;;;;5015514;28;20054;-60
2022/10/06 07:34:22;;;;;;;8.75;5.70;;;13.70;86.80;;;;;;5017488;28;20118;-60
2022/10/06 07:36:52;;;;;;;8.82;5.45;;;13.80;86.80;;;;;;5016231;28;20042;-61
2022/10/06 07:39:21;;;;;;;7.95;5.30;;;13.90;86.90;;;;;;5015315;28;20030;-59
2022/10/06 07:41:46;;;;;;;6.50;4.97;;;14.00;86.90;;;;;;5017456;28;20037;-60
2022/10/06 07:44:12;;;;;;;7.38;5.00;;;14.00;86.60;;;;;;5015815;28;20034;-60
2022/10/06 07:46:37;;;;;;;7.53;4.80;;;14.10;86.20;;;;;;5013961;28;20041;-61
2022/10/06 07:49:03;;;;;;;7.10;4.90;;;14.20;86.00;;;;;;5013862;28;20037;-60
2022/10/06 07:51:28;;;;;;;6.85;4.35;;;14.30;86.00;;;;;;5012941;28;20124;-61
2022/10/06 07:53:54;;;;;;;7.68;4.57;;;14.30;85.80;;;;;;5012487;28;20679;-61
2022/10/06 07:56:20;;;;;;;6.90;4.55;;;14.40;85.70;;;;;;5015653;28;20112;-59
2022/10/06 07:58:50;;;;;;;7.97;4.60;;;14.50;85.70;;;;;;5014357;28;20030;-60
2022/10/06 08:01:18;;;;;;;10.20;4.28;;;14.50;85.70;;;;;;5014864;28;20594;-59
2022/10/06 08:03:47;;;;;;;6.78;4.40;;;14.60;85.90;;;;;;5013011;28;20065;-60
2022/10/06 08:06:16;;;;;;;7.03;4.72;;;14.70;86.00;;;;;;5010749;28;20675;-60
2022/10/06 08:08:43;;;;;;;6.82;4.40;;;14.70;85.90;;;;;;5010553;28;20037;-61
2022/10/06 08:11:10;;;;;;;8.52;4.80;;;14.80;86.00;;;;;;5014193;28;20042;-60
2022/10/06 08:13:41;;;;;;;10.65;4.82;;;14.90;86.20;;;;;;5015998;28;20044;-60
2022/10/06 08:16:15;;;;;;;7.45;5.00;;;14.90;86.40;;;;;;5014465;28;20083;-60
2022/10/06 08:18:42;;;;;;;8.30;4.70;;;15.00;86.90;;;;;;5011928;28;21305;-61
2022/10/06 08:21:20;;;;;;;7.00;4.72;;;15.00;86.70;;;;;;5014762;28;20531;-61
2022/10/06 08:23:48;;;;;;;9.45;4.55;;;15.10;87.50;;;;;;5009509;28;20072;-59
2022/10/06 08:26:15;;;;;;;6.78;3.78;;;15.20;87.30;;;;;;5014127;28;20475;-60
2022/10/06 08:28:44;;;;;;;4.93;3.95;;;15.30;87.30;;;;;;5011942;28;20034;-60
2022/10/06 08:31:10;;;;;;;5.45;3.80;;;15.40;88.40;;;;;;5016629;28;20038;-60
2022/10/06 08:33:38;;;;;;;6.07;4.00;;;15.60;87.30;;;;;;5016033;28;20391;-59
2022/10/06 08:36:25;;;;;;;5.03;3.55;;;15.70;87.00;;;;;;5014888;28;20064;-61
2022/10/06 08:38:51;;;;;;;3.75;3.08;;;15.80;87.30;;;;;;5016871;28;20045;-60
2022/10/06 08:41:31;;;;;;;6.22;3.28;;;15.90;86.40;;;;;;5019018;28;20038;-61
2022/10/06 08:44:15;;;;;;;5.10;3.20;;;16.00;85.90;;;;;;5019411;28;20042;-60
2022/10/06 08:47:01;;;;;;;6.78;3.03;;;16.10;85.90;;;;;;5016581;28;20281;-57
2022/10/06 08:49:35;;;;;;;2.80;2.38;;;16.20;85.90;;;;;;5017983;28;20041;-60
2022/10/06 08:52:25;;;;;;;4.97;2.88;;;16.40;85.80;;;;;;5018967;28;20026;-60
2022/10/06 08:55:22;;;;;;;4.07;3.00;;;16.40;85.70;;;;;;5021799;28;20113;-60
2022/10/06 08:58:29;;;;;;;5.90;3.08;;;16.50;85.10;;;;;;4993884;28;20037;-60
2022/10/06 09:01:06;;;;;;;3.55;2.65;;;16.70;85.00;;;;;;4941755;28;20041;-60
2022/10/06 09:03:32;;;;;;;3.50;2.78;;;16.70;84.80;;;;;;5021756;28;20052;-61
2022/10/06 09:06:12;;;;;;;3.92;2.90;;;16.80;84.60;;;;;;5020281;28;20041;-61
2022/10/06 09:08:55;;;;;;;5.43;2.72;;;16.80;84.30;;;;;;5019807;28;20048;-60
2022/10/06 09:11:30;;;;;;;6.93;2.80;;;16.90;84.10;;;;;;5020737;28;20040;-60
2022/10/06 09:14:13;;;;;;;8.43;2.90;;;17.00;84.10;;;;;;5021923;28;20092;-61
2022/10/06 09:16:42;;;;;;;4.38;3.22;;;17.10;83.70;;;;;;5021984;28;20038;-60
2022/10/06 09:19:25;;;;;;;3.53;3.10;;;17.10;83.40;;;;;;5018976;28;20057;-59
2022/10/06 09:21:52;;;;;;;4.95;3.28;;;17.20;82.70;;;;;;5020151;28;20041;-60
2022/10/06 09:24:36;;;;;;;4.90;2.92;;;17.30;83.30;;;;;;5018150;28;20065;-60
2022/10/06 09:27:15;;;;;;;3.53;2.75;;;17.40;83.10;;;;;;5015556;28;20171;-60
2022/10/06 09:29:40;;;;;;;6.43;3.03;;;17.50;82.40;;;;;;5017575;28;20045;-61
2022/10/06 09:32:09;;;;;;;4.85;3.03;;;17.60;82.50;;;;;;5017179;28;20037;-61
2022/10/06 09:34:55;;;;;;;3.47;3.00;;;17.70;82.30;;;;;;5014905;28;22265;-60
2022/10/06 09:37:22;;;;;;;6.22;3.22;;;17.80;81.70;;;;;;5018503;28;20500;-60
2022/10/06 09:39:50;;;;;;;3.38;3.08;;;17.80;81.70;;;;;;5020797;28;20076;-60
2022/10/06 09:42:34;;;;;;;3.33;3.03;;;18.00;81.60;;;;;;5018855;28;20171;-60
2022/10/06 09:45:06;;;;;;;3.17;2.88;;;18.00;81.00;;;;;;5015975;28;20053;-62
2022/10/06 09:47:44;;;;;;;3.97;3.00;;;18.10;80.80;;;;;;5019618;28;20064;-61
2022/10/06 09:50:14;;;;;;;4.97;2.70;;;18.20;79.70;;;;;;5018998;28;20038;-59
2022/10/06 09:52:42;;;;;;;3.65;3.15;;;18.30;80.10;;;;;;5017575;28;20044;-60
2022/10/06 09:55:11;;;;;;;4.18;2.90;;;18.30;80.00;;;;;;5018863;28;20138;-60
2022/10/06 09:57:37;;;;;;;3.90;2.88;;;18.40;79.70;;;;;;5018754;28;20041;-61
2022/10/06 10:00:25;;;;;;;3.85;3.05;;;18.50;80.00;;;;;;5018340;28;20045;-59
2022/10/06 10:02:56;;;;;;;5.90;3.10;;;18.60;79.30;;;;;;5018617;28;20517;-61
2022/10/06 10:05:23;;;;;;;5.63;3.10;;;18.70;78.90;;;;;;5019988;28;20405;-60
2022/10/06 10:08:03;;;;;;;2.92;2.60;;;18.80;78.00;;;;;;5018771;28;20073;-58
2022/10/06 10:10:29;;;;;;;3.28;2.40;;;18.90;76.80;;;;;;5016099;28;20029;-60
2022/10/06 10:12:57;;;;;;;4.53;2.40;;;19.00;77.30;;;;;;5018996;28;20038;-61
2022/10/06 10:15:52;;;;;;;2.65;2.08;;;19.00;76.50;;;;;;5019161;28;20033;-61
2022/10/06 10:18:25;;;;;;;3.22;2.22;;;19.10;76.40;;;;;;5017367;28;20257;-60
2022/10/06 10:20:58;;;;;;;3.63;2.13;;;19.20;75.90;;;;;;5018608;28;20051;-61
2022/10/06 10:23:54;;;;;;;2.95;2.20;;;19.30;75.60;;;;;;5018799;28;20038;-60
2022/10/06 10:26:31;;;;;;;;;;;19.40;74.50;;;;;;4997940;28;20756;-62
2022/10/06 10:29:08;;;;;;;3.10;2.25;;;19.40;74.40;;;;;;5018175;28;19929;-60
2022/10/06 10:32:19;;;;;;;5.22;2.47;;;19.50;74.60;;;;;;5017650;28;20080;-61
2022/10/06 10:35:03;;;;;;;3.13;2.17;;;19.50;73.50;;;;;;5013811;28;20409;-61
2022/10/06 10:38:00;;;;;;;3.17;2.08;;;19.50;74.20;;;;;;5018087;28;20059;-61
2022/10/06 10:40:37;;;;;;;2.70;2.22;;;19.60;72.80;;;;;;5016854;28;20060;-61
2022/10/06 10:43:21;;;;;;;6.63;2.78;;;19.60;73.90;;;;;;5017359;28;21409;-62
2022/10/06 10:45:51;;;;;;;4.72;2.60;;;19.70;73.70;;;;;;5016295;28;20030;-62
2022/10/06 10:48:38;;;;;;;2.58;1.90;;;19.70;73.70;;;;;;5018579;28;20068;-62
2022/10/06 10:51:10;;;;;;;4.03;2.78;;;19.70;74.30;;;;;;5017467;28;20033;-61
2022/10/06 10:53:46;;;;;;;3.47;2.53;;;19.70;73.50;;;;;;5015844;28;20064;-60
2022/10/06 10:56:15;;;;;;;3.25;2.83;;;19.70;73.80;;;;;;5017988;28;20034;-61
2022/10/06 10:58:42;;;;;;;3.35;2.60;;;19.80;74.30;;;;;;5019891;28;20056;-61
2022/10/06 11:01:37;;;;;;;3.78;2.40;;;19.80;74.70;;;;;;5017428;28;20037;-61
2022/10/06 11:04:03;;;;;;;3.33;2.40;;;19.90;75.30;;;;;;5012213;28;20038;-62
2022/10/06 11:06:31;;;;;;;2.67;2.42;;;19.90;74.90;;;;;;5016541;28;20104;-62
2022/10/06 11:09:06;;;;;;;4.43;2.58;;;20.00;74.40;;;;;;5017978;28;20033;-61
2022/10/06 11:11:57;;;;;;;3.17;2.50;;;20.10;74.00;;;;;;5015329;28;20048;-61
2022/10/06 11:14:39;;;;;;;4.90;2.00;;;20.10;74.00;;;;;;5017647;28;20582;-61
2022/10/06 11:17:46;;;;;;;2.88;2.28;;;20.10;74.20;;;;;;5016387;28;20400;-61
2022/10/06 11:21:02;;;;;;;8.05;2.20;;;20.20;72.10;;;;;;5017078;28;20034;-61
2022/10/06 11:23:31;;;;;;;5.13;2.50;;;20.20;72.70;;;;;;4982145;28;20516;-60
2022/10/06 11:26:07;;;;;;;3.08;1.90;;;20.30;73.00;;;;;;5017771;28;20436;-62
2022/10/06 11:28:40;;;;;;;4.72;2.38;;;20.20;73.10;;;;;;5016477;28;20034;-62
2022/10/06 11:31:17;;;;;;;3.63;2.40;;;20.20;72.20;;;;;;5015593;28;20064;-60
2022/10/06 11:33:54;;;;;;;6.43;2.53;;;20.30;72.10;;;;;;5016829;28;20030;-62
2022/10/06 11:36:42;;;;;;;3.20;2.20;;;20.20;71.70;;;;;;5016804;28;21211;-62
2022/10/06 11:39:26;;;;;;;2.70;2.10;;;20.20;71.30;;;;;;5013385;28;20112;-61
2022/10/06 11:42:16;;;;;;;6.10;2.50;;;20.20;72.00;;;;;;5014415;28;20460;-61
2022/10/06 11:44:58;;;;;;;3.83;2.47;;;20.20;70.90;;;;;;5015887;28;20519;-61
2022/10/06 11:47:43;;;;;;;3.38;2.30;;;20.30;71.30;;;;;;5015531;28;20509;-62
2022/10/06 11:50:50;;;;;;;2.42;2.13;;;20.30;72.20;;;;;;5016184;28;20033;-62
2022/10/06 11:53:31;;;;;;;5.72;2.35;;;20.30;72.00;;;;;;4923726;29;20035;-60
2022/10/06 11:56:15;;;;;;;5.43;2.30;;;20.40;72.00;;;;;;4922352;29;20051;-60
2022/10/06 11:58:50;;;;;;;4.78;2.13;;;20.40;72.10;;;;;;4989381;28;20506;-61
2022/10/06 12:01:34;;;;;;;3.78;1.95;;;20.50;70.70;;;;;;5016252;28;20045;-62
2022/10/06 12:04:06;;;;;;;6.90;2.53;;;20.50;70.60;;;;;;5014771;28;20472;-60
2022/10/06 12:06:53;;;;;;;3.47;2.05;;;20.50;70.40;;;;;;5018037;28;20044;-61
2022/10/06 12:09:26;;;;;;;4.47;2.20;;;20.50;70.50;;;;;;5020704;28;20083;-60
2022/10/06 12:11:53;;;;;;;3.78;2.00;;;20.50;70.40;;;;;;5020679;28;20038;-61
2022/10/06 12:14:29;;;;;;;2.75;2.03;;;20.50;70.10;;;;;;5021075;28;20041;-61
2022/10/06 12:17:06;;;;;;;4.45;2.00;;;20.50;70.00;;;;;;5019933;28;20057;-62
2022/10/06 12:19:51;;;;;;;3.60;2.17;;;20.40;69.80;;;;;;5019765;28;20044;-61
2022/10/06 12:22:16;;;;;;;;;;;20.40;70.00;;;;;;5022112;28;20041;-61
2022/10/06 12:25:09;;;;;;;4.20;2.10;;;20.40;69.40;;;;;;5020402;28;20418;-61
2022/10/06 12:28:27;;;;;;;3.88;2.50;;;20.40;70.40;;;;;;5007267;28;20091;-62
2022/10/06 12:30:52;;;;;;;4.78;2.00;;;20.40;68.50;;;;;;5018802;28;20524;-62
2022/10/06 12:33:19;;;;;;;5.55;2.50;;;20.40;70.00;;;;;;5020985;28;20120;-60
2022/10/06 12:35:45;;;;;;;4.10;2.40;;;20.40;69.50;;;;;;5020151;28;20412;-60
2022/10/06 12:38:29;;;;;;;3.38;2.00;;;20.40;69.20;;;;;;5017988;28;20524;-60
2022/10/06 12:40:55;;;;;;;2.87;2.30;;;20.30;69.00;;;;;;5020000;28;20068;-61
2022/10/06 12:43:21;;;;;;;5.40;2.08;;;20.40;69.80;;;;;;5019955;28;20045;-60
2022/10/06 12:45:53;;;;;;;2.53;2.05;;;20.40;70.00;;;;;;5020002;28;20040;-61
2022/10/06 12:48:29;;;;;;;4.55;1.85;;;20.40;69.70;;;;;;5019883;28;20030;-60
2022/10/06 12:51:02;;;;;;;4.22;2.17;;;20.40;69.30;;;;;;5018768;28;20543;-61
2022/10/06 12:53:35;;;;;;;3.28;2.17;;;20.40;68.60;;;;;;5020812;28;20087;-60
2022/10/06 12:56:04;;;;;;;3.33;1.90;;;20.50;68.70;;;;;;5019227;28;20103;-62
2022/10/06 12:58:32;;;;;;;2.83;1.95;;;20.50;69.30;;;;;;5020681;28;20048;-60
2022/10/06 13:01:12;;;;;;;4.97;2.10;;;20.50;69.20;;;;;;5018476;28;20034;-62
2022/10/06 13:03:38;;;;;;;2.13;1.95;;;20.60;68.00;;;;;;5020469;28;20072;-60
2022/10/06 13:06:07;;;;;;;2.70;2.10;;;20.50;68.60;;;;;;5019353;28;20084;-60
2022/10/06 13:08:35;;;;;;;3.05;1.95;;;20.60;69.00;;;;;;5018766;28;20034;-61
2022/10/06 13:11:33;;;;;;;3.70;1.90;;;20.50;69.20;;;;;;5018839;28;20076;-62
2022/10/06 13:14:16;;;;;;;3.03;1.85;;;20.60;68.30;;;;;;4986104;28;20042;-61
2022/10/06 13:16:44;;;;;;;2.58;1.80;;;20.60;68.50;;;;;;5018012;28;20136;-61
2022/10/06 13:19:25;;;;;;;3.58;2.15;;;20.60;69.00;;;;;;5019514;28;20037;-62